Time;durP1;ratioP1;P1;durP2;ratioP2;P2;SDS_P1;SDS_P2;PMS_P1;PMS_P2;Temp;Humidity;BMP_temperature;BMP_pressure;BME280_temperature;BME280_humidity;BME280_pressure;Samples;Min_cycle;Max_cycle;Signal;HPM_P1;HPM_P2
2022/12/04 00:01:29;;;;;;;18.90;7.33;;;;;;;18.78;50.00;99996.75;5083897;28;20548;-63
2022/12/04 00:03:56;;;;;;;15.37;6.67;;;;;;;18.78;49.96;99994.75;5083971;28;20676;-63
2022/12/04 00:06:21;;;;;;;16.80;7.00;;;;;;;18.82;51.54;99989.84;5085006;28;20194;-62
2022/12/04 00:08:47;;;;;;;18.40;7.00;;;;;;;18.85;51.34;99983.38;5067110;28;20437;-63
2022/12/04 00:11:14;;;;;;;20.37;6.57;;;;;;;18.81;51.19;99984.56;5076237;28;20198;-63
2022/12/04 00:13:39;;;;;;;17.73;6.73;;;;;;;18.75;51.20;99975.50;5082746;28;20200;-63
2022/12/04 00:16:10;;;;;;;24.07;8.27;;;;;;;18.50;50.14;99968.63;5078266;28;20449;-63
2022/12/04 00:18:36;;;;;;;20.20;9.47;;;;;;;18.51;47.87;99972.34;5060415;28;20190;-63
2022/12/04 00:21:05;;;;;;;15.90;9.13;;;;;;;18.63;47.86;99974.91;5061557;28;20797;-63
2022/12/04 00:23:31;;;;;;;17.80;8.93;;;;;;;18.69;47.95;99971.34;5063350;28;20216;-62
2022/12/04 00:26:01;;;;;;;14.93;7.97;;;;;;;18.74;47.70;99973.84;5045631;28;20491;-63
2022/12/04 00:28:26;;;;;;;12.73;7.63;;;;;;;18.74;48.36;99979.56;5076479;28;20251;-63
2022/12/04 00:30:52;;;;;;;16.53;8.03;;;;;;;18.78;48.33;99977.56;5080631;28;20477;-63
2022/12/04 00:33:17;;;;;;;14.37;8.10;;;;;;;18.76;48.66;99982.03;5080767;28;20186;-63
2022/12/04 00:35:42;;;;;;;15.50;8.17;;;;;;;18.81;48.69;99978.84;5080114;28;20630;-63
2022/12/04 00:38:08;;;;;;;18.67;7.20;;;;;;;18.82;49.39;99978.41;5078644;28;20232;-63
2022/12/04 00:40:33;;;;;;;18.50;8.17;;;;;;;18.85;48.80;99974.78;5080918;28;20179;-63
2022/12/04 00:42:59;;;;;;;13.10;7.07;;;;;;;18.85;49.54;99974.78;5068041;28;20207;-63
2022/12/04 00:45:24;;;;;;;14.10;7.43;;;;;;;18.85;49.20;99968.22;5060813;28;20168;-63
2022/12/04 00:47:49;;;;;;;11.77;7.47;;;;;;;18.86;49.51;99962.13;5063273;28;20179;-63
2022/12/04 00:50:15;;;;;;;14.30;6.60;;;;;;;18.89;49.52;99967.06;5069948;28;20187;-63
2022/12/04 00:52:40;;;;;;;11.80;6.90;;;;;;;18.88;50.04;99971.16;5080707;28;20194;-63
2022/12/04 00:55:06;;;;;;;12.60;7.23;;;;;;;18.87;49.91;99974.41;5066716;28;20547;-63
2022/12/04 00:57:32;;;;;;;19.00;6.93;;;;;;;18.88;49.71;99976.88;5060741;28;20238;-63
2022/12/04 00:59:57;;;;;;;14.10;6.83;;;;;;;18.84;50.61;99983.75;5064373;28;20442;-63
2022/12/04 01:02:23;;;;;;;15.77;6.73;;;;;;;18.89;50.30;99983.41;5079635;28;20175;-63
2022/12/04 01:04:48;;;;;;;13.30;6.50;;;;;;;18.85;50.56;99986.22;5080499;28;20198;-63
2022/12/04 01:07:13;;;;;;;10.53;5.93;;;;;;;18.86;50.49;99976.44;5065037;28;20184;-63
2022/12/04 01:09:39;;;;;;;14.57;5.80;;;;;;;18.86;50.62;99981.34;5060411;28;20175;-63
2022/12/04 01:12:04;;;;;;;17.00;6.37;;;;;;;18.83;50.80;99982.13;5060823;28;20237;-63
2022/12/04 01:14:30;;;;;;;10.40;5.57;;;;;;;18.79;51.18;99981.25;5060771;28;20159;-63
2022/12/04 01:16:55;;;;;;;15.13;6.73;;;;;;;18.84;50.91;99976.00;5064685;28;20206;-63
2022/12/04 01:19:21;;;;;;;10.17;5.93;;;;;;;18.86;50.76;99976.44;5080763;28;20175;-62
2022/12/04 01:21:46;;;;;;;17.73;6.10;;;;;;;18.79;51.03;99972.66;5069745;28;20180;-63
2022/12/04 01:24:12;;;;;;;12.10;5.70;;;;;;;18.89;51.12;99971.97;5059528;28;20198;-62
2022/12/04 01:26:37;;;;;;;12.17;5.90;;;;;;;18.80;51.18;99978.00;5063140;28;20187;-63
2022/12/04 01:29:03;;;;;;;12.17;6.50;;;;;;;18.84;51.17;99973.16;5061337;28;20183;-63
2022/12/04 01:31:28;;;;;;;10.13;6.17;;;;;;;18.83;51.44;99974.38;5061045;28;20213;-63
2022/12/04 01:33:54;;;;;;;11.17;5.73;;;;;;;18.86;51.78;99979.28;5073165;28;20187;-62
2022/12/04 01:36:21;;;;;;;10.60;6.00;;;;;;;18.87;51.49;99975.22;5081040;28;20167;-63
2022/12/04 01:38:46;;;;;;;13.50;6.17;;;;;;;18.83;51.45;99982.94;5080305;28;20167;-62
2022/12/04 01:41:13;;;;;;;12.57;5.30;;;;;;;18.83;51.59;99974.38;5083000;28;20424;-62
2022/12/04 01:43:38;;;;;;;15.27;5.53;;;;;;;18.84;51.66;99973.16;5083302;28;20203;-62
2022/12/04 01:46:04;;;;;;;13.13;5.27;;;;;;;18.88;51.35;99982.59;5084635;28;20409;-62
2022/12/04 01:48:33;;;;;;;10.07;5.77;;;;;;;18.80;51.73;99974.31;5084651;28;20175;-62
2022/12/04 01:51:19;;;;;;;11.27;5.40;;;;;;;18.80;51.79;99977.16;5082606;28;20188;-63
2022/12/04 01:53:57;;;;;;;9.10;5.60;;;;;;;18.81;51.97;99976.78;5052062;28;20465;-62
2022/12/04 01:56:25;;;;;;;13.47;5.93;;;;;;;18.85;51.96;99973.94;5055757;28;20438;-63
2022/12/04 01:58:52;;;;;;;9.17;5.20;;;;;;;18.83;52.06;99970.69;5064205;28;20414;-63
2022/12/04 02:01:17;;;;;;;11.27;6.10;;;;;;;18.86;52.61;99972.75;5044796;28;20441;-60
2022/12/04 02:03:43;;;;;;;13.50;5.97;;;;;;;18.86;51.87;99979.28;5064367;28;20522;-60
2022/12/04 02:06:08;;;;;;;10.73;5.60;;;;;;;18.86;51.90;99970.72;5075158;28;20199;-60
2022/12/04 02:08:34;;;;;;;13.37;6.33;;;;;;;18.81;52.15;99973.91;5075131;28;20186;-60
2022/12/04 02:11:12;;;;;;;11.20;5.80;;;;;;;18.86;52.02;99979.28;5056238;28;20201;-60
2022/12/04 02:14:00;;;;;;;12.17;5.77;;;;;;;18.85;52.32;99982.53;5056732;28;20224;-61
2022/12/04 02:17:03;;;;;;;10.47;5.43;;;;;;;18.84;52.25;99990.31;5074826;28;20417;-60
2022/12/04 02:19:50;;;;;;;9.80;5.63;;;;;;;18.81;52.49;99987.41;5071633;28;20437;-61
2022/12/04 02:22:30;;;;;;;9.30;4.93;;;;;;;18.80;52.29;99982.88;5073112;28;20416;-60
2022/12/04 02:25:20;;;;;;;10.77;5.77;;;;;;;18.80;52.28;99980.03;5056077;28;20424;-60
2022/12/04 02:27:49;;;;;;;9.03;5.47;;;;;;;18.80;52.06;99972.28;5054969;28;20436;-61
2022/12/04 02:30:15;;;;;;;9.03;5.67;;;;;;;18.76;52.39;99970.59;5053921;28;20444;-60
2022/12/04 02:32:52;;;;;;;13.73;5.40;;;;;;;18.78;52.80;99971.84;5073298;28;20463;-61
2022/12/04 02:35:24;;;;;;;8.90;5.00;;;;;;;18.83;52.17;99970.69;5067083;28;20193;-61
2022/12/04 02:37:53;;;;;;;11.07;5.40;;;;;;;18.76;52.62;99968.53;5036358;28;20788;-60
2022/12/04 02:40:26;;;;;;;11.50;5.67;;;;;;;18.78;52.52;99966.13;5036605;28;21227;-61
2022/12/04 02:43:00;;;;;;;7.67;5.13;;;;;;;18.74;52.60;99968.13;5057231;28;20557;-60
2022/12/04 02:45:30;;;;;;;9.67;5.03;;;;;;;18.76;52.44;99965.69;5020218;28;20497;-61
2022/12/04 02:47:56;;;;;;;12.93;5.23;;;;;;;18.77;52.52;99973.03;5036851;28;20406;-61
2022/12/04 02:50:21;;;;;;;6.70;4.40;;;;;;;18.78;52.74;99971.84;5054281;28;20784;-60
2022/12/04 02:52:53;;;;;;;8.70;5.57;;;;;;;18.78;52.74;99974.72;5067544;28;20176;-61
2022/12/04 02:55:22;;;;;;;8.27;4.87;;;;;;;18.74;52.66;99965.28;5056325;28;20171;-61
2022/12/04 02:57:49;;;;;;;11.50;6.17;;;;;;;18.69;52.95;99962.75;5046358;28;20989;-61
2022/12/04 03:00:15;;;;;;;11.80;5.33;;;;;;;18.72;52.94;99961.97;5036291;28;20556;-61
2022/12/04 03:02:52;;;;;;;7.97;5.13;;;;;;;18.72;52.93;99946.84;5055077;28;20466;-61
2022/12/04 03:05:21;;;;;;;6.93;4.50;;;;;;;18.77;53.06;99949.38;5036371;28;20195;-60
2022/12/04 03:07:48;;;;;;;10.37;5.00;;;;;;;18.76;52.96;99942.81;5051955;28;20474;-61
2022/12/04 03:10:20;;;;;;;7.93;5.40;;;;;;;18.74;52.86;99945.25;5035908;28;20483;-61
2022/12/04 03:12:57;;;;;;;9.20;5.77;;;;;;;18.74;53.11;99950.97;5038312;28;20462;-61
2022/12/04 03:15:23;;;;;;;7.50;4.60;;;;;;;18.74;53.05;99950.97;5019575;28;20478;-60
2022/12/04 03:17:54;;;;;;;8.13;4.70;;;;;;;18.75;53.31;99946.06;5056049;28;20556;-60
2022/12/04 03:20:20;;;;;;;10.67;5.47;;;;;;;18.71;52.93;99939.50;5035191;28;20547;-60
2022/12/04 03:22:47;;;;;;;6.00;4.20;;;;;;;18.72;52.79;99944.00;5039042;28;20477;-60
2022/12/04 03:25:13;;;;;;;8.70;5.47;;;;;;;18.75;52.91;99940.34;5058373;28;20179;-60
2022/12/04 03:27:50;;;;;;;8.40;5.00;;;;;;;18.70;53.12;99947.25;5053853;28;20511;-60
2022/12/04 03:30:17;;;;;;;8.83;5.03;;;;;;;18.69;53.25;99948.47;5053469;28;20160;-60
2022/12/04 03:32:58;;;;;;;9.30;4.90;;;;;;;18.72;53.03;99950.50;5039799;28;20441;-60
2022/12/04 03:35:33;;;;;;;8.10;4.53;;;;;;;18.73;53.21;99945.63;5073227;28;20466;-61
2022/12/04 03:38:10;;;;;;;8.30;4.50;;;;;;;18.73;53.06;99946.47;5034591;28;20446;-61
2022/12/04 03:40:42;;;;;;;9.20;4.63;;;;;;;18.71;53.14;99945.22;5035086;28;20418;-60
2022/12/04 03:43:11;;;;;;;6.83;4.60;;;;;;;18.70;53.06;99932.94;5067820;28;20456;-61
2022/12/04 03:45:43;;;;;;;9.70;4.97;;;;;;;18.72;53.24;99941.94;5055412;28;20444;-61
2022/12/04 03:48:30;;;;;;;7.90;4.83;;;;;;;18.71;53.33;99928.06;5018957;28;20402;-61
2022/12/04 03:51:16;;;;;;;8.13;5.53;;;;;;;18.71;53.52;99920.28;5037414;28;20488;-61
2022/12/04 03:53:53;;;;;;;8.43;4.77;;;;;;;18.73;53.24;99915.00;5052763;28;20479;-61
2022/12/04 03:56:24;;;;;;;6.70;4.47;;;;;;;18.71;53.24;99922.34;5037734;28;20433;-60
2022/12/04 03:58:51;;;;;;;9.10;4.90;;;;;;;18.71;53.03;99926.00;5035502;28;20426;-61
2022/12/04 04:01:19;;;;;;;8.53;4.73;;;;;;;18.68;53.48;99929.66;5019753;28;20474;-61
2022/12/04 04:03:47;;;;;;;10.30;5.40;;;;;;;18.75;53.37;99928.91;5042014;28;20892;-61
2022/12/04 04:06:20;;;;;;;7.60;4.60;;;;;;;18.70;53.43;99934.97;5028299;28;20874;-60
2022/12/04 04:08:47;;;;;;;7.77;4.50;;;;;;;18.67;53.62;99938.63;5032991;28;20408;-61
2022/12/04 04:11:16;;;;;;;9.13;4.70;;;;;;;18.70;53.36;99938.66;5014769;28;20410;-60
2022/12/04 04:25:05;;;;;;;7.70;5.17;;;;;;;18.69;53.57;99931.31;5025475;28;20508;-61
2022/12/04 04:27:31;;;;;;;7.17;4.73;;;;;;;18.73;53.27;99931.34;4998831;28;20989;-60
2022/12/04 04:29:56;;;;;;;9.60;4.60;;;;;;;18.73;53.22;99940.75;5034819;28;20433;-61
2022/12/04 04:32:33;;;;;;;10.67;4.70;;;;;;;18.71;53.32;99942.34;5031439;28;20176;-60
2022/12/04 04:35:08;;;;;;;8.33;4.90;;;;;;;18.71;53.45;99942.34;5052080;28;20233;-60
2022/12/04 04:37:36;;;;;;;8.30;4.97;;;;;;;18.69;53.36;99947.63;5037754;28;20438;-60
2022/12/04 04:40:29;;;;;;;10.03;4.50;;;;;;;18.74;53.36;99941.56;5033302;28;20434;-60
2022/12/04 04:43:03;;;;;;;7.93;4.70;;;;;;;18.70;53.50;99950.09;5032301;28;20457;-60
2022/12/04 04:45:35;;;;;;;7.70;4.90;;;;;;;18.71;53.27;99943.16;5048697;28;20532;-60
2022/12/04 04:48:06;;;;;;;7.57;4.53;;;;;;;18.71;53.70;99954.59;5034216;28;20415;-60
2022/12/04 04:50:32;;;;;;;7.40;4.10;;;;;;;18.70;53.48;99952.97;5042966;28;20439;-60
2022/12/04 04:53:03;;;;;;;7.93;4.90;;;;;;;18.74;53.28;99947.28;5014580;28;20411;-60
2022/12/04 04:55:33;;;;;;;7.83;4.90;;;;;;;18.70;53.56;99957.84;5032502;28;20190;-61
2022/12/04 04:58:08;;;;;;;7.67;4.60;;;;;;;18.72;53.32;99959.09;5065266;28;20480;-60
2022/12/04 05:00:34;;;;;;;7.03;4.63;;;;;;;18.72;53.53;99966.88;5071689;28;20428;-60
2022/12/04 05:03:00;;;;;;;6.53;4.30;;;;;;;18.72;53.62;99964.00;5070517;28;20492;-61
2022/12/04 05:05:25;;;;;;;6.57;4.17;;;;;;;18.69;53.46;99965.63;5071768;28;20252;-61
2022/12/04 05:07:50;;;;;;;7.83;5.10;;;;;;;18.75;53.63;99963.22;5067972;28;20244;-61
2022/12/04 05:10:16;;;;;;;7.33;4.47;;;;;;;18.73;53.33;99969.34;5051734;28;20156;-61
2022/12/04 05:12:41;;;;;;;7.93;4.90;;;;;;;18.71;53.43;99974.63;5051601;28;20160;-60
2022/12/04 05:15:07;;;;;;;6.63;4.13;;;;;;;18.73;53.39;99975.06;5053943;28;20202;-60
2022/12/04 05:17:34;;;;;;;5.43;3.90;;;;;;;18.70;53.37;99969.28;5052001;28;20172;-60
2022/12/04 05:20:00;;;;;;;10.10;5.00;;;;;;;18.68;53.41;99969.69;5054280;28;20445;-60
2022/12/04 05:22:30;;;;;;;7.03;4.90;;;;;;;18.72;53.65;99969.72;5051431;28;20399;-60
2022/12/04 05:24:56;;;;;;;7.33;5.07;;;;;;;18.70;53.64;99961.53;5070861;28;20199;-61
2022/12/04 05:27:21;;;;;;;7.00;4.00;;;;;;;18.70;53.63;99963.56;5055819;28;20516;-60
2022/12/04 05:29:46;;;;;;;8.27;5.30;;;;;;;18.75;54.05;99957.50;5051738;28;20259;-61
2022/12/04 05:32:12;;;;;;;7.03;4.30;;;;;;;18.72;54.16;99952.56;5053871;28;20233;-60
2022/12/04 05:34:37;;;;;;;8.83;4.73;;;;;;;18.73;53.41;99960.78;5068778;28;20185;-60
2022/12/04 05:37:03;;;;;;;6.20;4.50;;;;;;;18.72;53.36;99947.66;5071748;28;20163;-60
2022/12/04 05:39:28;;;;;;;9.30;4.73;;;;;;;18.68;53.84;99961.13;5067289;28;20193;-60
2022/12/04 05:41:54;;;;;;;7.13;4.47;;;;;;;18.72;53.76;99964.81;5071638;28;20246;-60
2022/12/04 05:44:19;;;;;;;8.70;4.40;;;;;;;18.69;53.53;99959.91;5069241;28;20225;-60
2022/12/04 05:46:45;;;;;;;5.97;3.93;;;;;;;18.70;53.87;99952.97;5071264;28;20526;-60
2022/12/04 05:49:10;;;;;;;8.03;4.50;;;;;;;18.72;53.81;99953.38;5070250;28;20247;-60
2022/12/04 05:51:36;;;;;;;8.77;3.67;;;;;;;18.74;53.63;99958.72;5054208;28;20531;-60
2022/12/04 05:54:01;;;;;;;6.87;4.23;;;;;;;18.71;53.67;99963.19;5051370;28;20650;-60
2022/12/04 05:56:26;;;;;;;7.67;4.10;;;;;;;18.72;53.98;99958.28;5053409;28;20245;-61
2022/12/04 05:58:52;;;;;;;6.17;4.00;;;;;;;18.72;53.66;99964.81;5044739;28;20175;-61
2022/12/04 06:01:19;;;;;;;6.70;4.10;;;;;;;18.69;53.79;99956.19;5067656;28;20183;-61
2022/12/04 06:03:45;;;;;;;6.47;4.00;;;;;;;18.71;53.61;99954.59;5067727;28;20573;-61
2022/12/04 06:06:31;;;;;;;6.83;4.20;;;;;;;18.70;53.87;99952.97;5071203;28;20935;-61
2022/12/04 06:08:58;;;;;;;7.30;4.60;;;;;;;18.71;53.81;99953.78;5070645;28;20425;-61
2022/12/04 06:11:25;;;;;;;6.80;4.43;;;;;;;18.72;54.04;99959.09;5069232;28;20425;-60
2022/12/04 06:13:51;;;;;;;8.37;4.67;;;;;;;18.71;53.60;99951.75;5035491;28;20470;-61
2022/12/04 06:16:20;;;;;;;6.77;3.90;;;;;;;18.72;53.65;99950.50;5050858;28;20422;-60
2022/12/04 06:18:53;;;;;;;6.40;4.30;;;;;;;18.73;53.82;99955.03;5053799;28;20188;-61
2022/12/04 06:21:19;;;;;;;6.80;4.20;;;;;;;18.70;53.68;99955.81;5051150;28;20444;-60
2022/12/04 06:23:44;;;;;;;7.13;4.50;;;;;;;18.69;53.74;99964.78;5053460;28;20938;-61
2022/12/04 06:26:10;;;;;;;6.63;3.60;;;;;;;18.72;53.62;99961.97;5051530;28;20180;-61
2022/12/04 06:28:35;;;;;;;6.30;4.10;;;;;;;18.71;53.84;99960.31;5053536;28;20871;-61
2022/12/04 06:31:02;;;;;;;6.87;3.90;;;;;;;18.75;53.61;99952.59;5064144;28;20218;-60
2022/12/04 06:33:27;;;;;;;5.83;3.87;;;;;;;18.69;53.79;99959.91;5073218;28;20211;-61
2022/12/04 06:36:07;;;;;;;7.27;3.90;;;;;;;18.73;53.79;99963.63;5069656;28;20432;-60
2022/12/04 06:38:33;;;;;;;6.60;3.80;;;;;;;18.73;53.56;99966.50;5053300;28;20233;-60
2022/12/04 06:40:58;;;;;;;8.10;4.60;;;;;;;18.71;53.95;99968.91;5035601;28;20960;-60
2022/12/04 06:43:24;;;;;;;6.40;4.47;;;;;;;18.74;53.49;99962.41;5055731;28;20610;-61
2022/12/04 06:46:04;;;;;;;6.90;4.20;;;;;;;18.71;53.90;99963.19;5054321;28;20175;-61
2022/12/04 06:48:29;;;;;;;6.43;4.33;;;;;;;18.74;53.98;99971.00;5061558;28;20191;-61
2022/12/04 06:51:04;;;;;;;6.00;4.03;;;;;;;18.75;53.70;99964.03;5074334;28;20507;-61
2022/12/04 06:53:31;;;;;;;6.67;4.07;;;;;;;18.75;53.91;99966.06;5073974;28;20174;-60
2022/12/04 06:55:57;;;;;;;5.97;3.70;;;;;;;18.74;53.84;99968.13;5052612;28;20410;-60
2022/12/04 06:58:23;;;;;;;7.83;4.60;;;;;;;18.73;53.92;99968.50;5066588;28;20500;-61
2022/12/04 07:00:48;;;;;;;7.00;3.87;;;;;;;18.73;53.71;99972.22;5074197;28;21120;-61
2022/12/04 07:03:14;;;;;;;4.40;3.23;;;;;;;18.77;53.92;99973.03;5071635;28;20203;-60
2022/12/04 07:05:39;;;;;;;4.63;3.40;;;;;;;18.76;53.92;99976.31;5072469;28;20198;-60
2022/12/04 07:08:04;;;;;;;6.20;3.63;;;;;;;18.72;54.05;99975.44;5073779;28;20159;-60
2022/12/04 07:10:30;;;;;;;8.50;4.90;;;;;;;18.71;53.82;99983.19;5056421;28;20184;-60
2022/12/04 07:12:55;;;;;;;6.20;4.00;;;;;;;18.73;54.04;99977.09;5054006;28;20172;-61
2022/12/04 07:15:21;;;;;;;5.07;3.20;;;;;;;18.75;53.94;99975.50;5064537;28;20210;-60
2022/12/04 07:17:46;;;;;;;5.93;4.00;;;;;;;18.74;54.18;99985.28;5051827;28;20198;-61
2022/12/04 07:20:12;;;;;;;6.83;3.50;;;;;;;18.80;53.88;99983.72;5051931;28;20521;-61
2022/12/04 07:22:37;;;;;;;6.73;3.43;;;;;;;18.72;53.97;99993.41;5054823;28;20238;-60
2022/12/04 07:25:03;;;;;;;7.23;3.93;;;;;;;18.78;54.06;99986.16;5049471;28;20160;-61
2022/12/04 07:27:31;;;;;;;8.40;4.50;;;;;;;18.76;53.96;99980.00;5034189;28;20642;-60
2022/12/04 07:29:57;;;;;;;6.37;4.00;;;;;;;18.80;53.65;99968.59;5051914;28;20658;-61
2022/12/04 07:32:22;;;;;;;5.63;4.10;;;;;;;18.77;54.06;99973.03;5053970;28;20429;-60
2022/12/04 07:34:47;;;;;;;7.60;4.57;;;;;;;18.73;53.78;99989.38;5071759;28;20175;-61
2022/12/04 07:37:13;;;;;;;6.50;3.73;;;;;;;18.75;53.91;99977.50;5073479;28;20840;-61
2022/12/04 07:39:38;;;;;;;4.90;3.50;;;;;;;18.75;54.10;99980.38;5063099;28;20188;-60
2022/12/04 07:42:04;;;;;;;4.83;3.43;;;;;;;18.78;54.08;99983.28;5062215;28;20248;-60
2022/12/04 07:44:30;;;;;;;5.53;3.97;;;;;;;18.76;54.21;99977.13;5070580;28;20215;-60
2022/12/04 07:46:56;;;;;;;6.47;4.07;;;;;;;18.75;53.77;99989.78;5054628;28;20183;-60
2022/12/04 07:49:21;;;;;;;6.53;3.97;;;;;;;18.73;54.05;99986.50;5050520;28;20425;-60
2022/12/04 07:51:47;;;;;;;5.30;3.80;;;;;;;18.80;54.20;99986.56;5069599;28;20191;-60
2022/12/04 07:54:12;;;;;;;6.10;3.77;;;;;;;18.75;53.89;99991.81;5055133;28;20156;-60
2022/12/04 07:56:38;;;;;;;7.10;3.70;;;;;;;18.76;53.88;99997.16;5071110;28;20176;-60
2022/12/04 07:59:03;;;;;;;5.80;4.10;;;;;;;18.77;53.90;99995.94;5052636;28;20183;-61
2022/12/04 08:01:29;;;;;;;7.50;4.07;;;;;;;18.75;53.99;99997.53;5052898;28;20221;-60
2022/12/04 08:03:55;;;;;;;6.33;4.07;;;;;;;18.82;53.70;100006.22;5065603;28;20214;-60
2022/12/04 08:06:21;;;;;;;5.87;4.10;;;;;;;18.75;54.22;100008.97;5072875;28;20658;-61
2022/12/04 08:08:46;;;;;;;8.00;4.00;;;;;;;18.73;54.19;100006.53;5069447;28;20483;-61
2022/12/04 08:11:14;;;;;;;6.23;4.37;;;;;;;18.75;53.98;100001.22;5053046;28;20410;-60
2022/12/04 08:13:39;;;;;;;7.30;3.83;;;;;;;18.76;54.17;100004.91;5052634;28;20614;-61
2022/12/04 08:16:05;;;;;;;6.60;3.77;;;;;;;18.75;54.13;100004.09;5055338;28;20440;-61
2022/12/04 08:18:31;;;;;;;5.50;3.70;;;;;;;18.79;54.15;99998.41;5052971;28;20590;-62
2022/12/04 08:21:04;;;;;;;6.20;3.60;;;;;;;18.78;54.27;100000.47;5056072;28;20442;-62
2022/12/04 08:23:29;;;;;;;5.67;4.07;;;;;;;18.79;54.21;99999.25;5072041;28;20565;-61
2022/12/04 08:25:58;;;;;;;6.07;3.83;;;;;;;18.78;54.10;100002.47;5072229;28;20421;-62
2022/12/04 08:28:23;;;;;;;5.43;3.20;;;;;;;18.72;54.07;99999.13;5055582;28;20191;-62
2022/12/04 08:30:48;;;;;;;8.70;3.93;;;;;;;18.76;53.98;99997.16;5052722;28;20426;-61
2022/12/04 08:33:14;;;;;;;5.23;3.50;;;;;;;18.78;54.07;100006.19;5059028;28;20183;-62
2022/12/04 08:35:39;;;;;;;6.37;3.73;;;;;;;18.77;54.08;99995.94;5073063;28;20642;-62
2022/12/04 08:38:05;;;;;;;8.93;3.37;;;;;;;18.75;54.21;99992.66;5072538;28;20630;-62
2022/12/04 08:40:30;;;;;;;5.73;3.20;;;;;;;18.81;54.34;99982.50;5055022;28;20190;-62
2022/12/04 08:42:55;;;;;;;7.93;3.67;;;;;;;18.76;54.19;99999.19;5052093;28;20204;-61
2022/12/04 08:45:21;;;;;;;4.43;3.00;;;;;;;18.81;53.97;99999.66;5054312;28;20612;-62
2022/12/04 08:47:46;;;;;;;4.50;3.40;;;;;;;18.75;54.22;99995.50;5054518;28;20218;-61
2022/12/04 08:50:12;;;;;;;5.77;3.50;;;;;;;18.79;54.03;99993.50;5051499;28;20602;-62
2022/12/04 08:52:37;;;;;;;4.80;3.30;;;;;;;18.83;53.86;99999.28;5054633;28;20195;-62
2022/12/04 08:55:03;;;;;;;6.63;3.50;;;;;;;18.75;54.29;99989.78;5052034;28;20164;-62
2022/12/04 08:57:28;;;;;;;5.20;3.47;;;;;;;18.77;54.35;100000.84;5053665;28;20237;-61
2022/12/04 08:59:54;;;;;;;5.00;3.33;;;;;;;18.77;53.97;100003.69;5071687;28;20163;-61
2022/12/04 09:02:19;;;;;;;5.10;3.30;;;;;;;18.76;54.09;99997.16;5062661;28;20178;-61
2022/12/04 09:04:44;;;;;;;4.43;3.17;;;;;;;18.77;54.26;100007.38;5069645;28;20218;-61
2022/12/04 09:07:10;;;;;;;6.90;3.40;;;;;;;18.79;53.99;99998.41;5059545;28;20187;-62
2022/12/04 09:09:35;;;;;;;5.23;3.93;;;;;;;18.75;54.28;99998.38;5063728;28;20175;-62
2022/12/04 09:12:01;;;;;;;6.37;3.67;;;;;;;18.71;54.21;100000.34;5068134;28;20186;-62
2022/12/04 09:14:26;;;;;;;5.20;3.50;;;;;;;18.74;54.17;100001.59;5072109;28;20163;-62
2022/12/04 09:16:52;;;;;;;5.17;3.30;;;;;;;18.72;54.22;99993.41;5061067;28;20187;-61
2022/12/04 09:19:18;;;;;;;5.40;3.53;;;;;;;18.76;54.22;99999.19;5051749;28;20164;-62
2022/12/04 09:21:43;;;;;;;5.47;3.50;;;;;;;18.75;54.11;100001.22;5054197;28;20206;-61
2022/12/04 09:24:09;;;;;;;5.43;3.43;;;;;;;18.78;54.00;100000.47;5051593;28;20442;-61
2022/12/04 09:26:34;;;;;;;4.10;3.10;;;;;;;18.76;54.30;100004.91;5051672;28;20175;-62
2022/12/04 09:29:00;;;;;;;5.60;3.40;;;;;;;18.76;54.33;99993.47;5063725;28;20540;-61
2022/12/04 09:31:26;;;;;;;5.93;3.30;;;;;;;18.78;54.05;99994.75;5071641;28;20155;-61
2022/12/04 09:33:52;;;;;;;5.93;3.70;;;;;;;18.74;54.69;99993.88;5071717;28;20754;-61
2022/12/04 09:36:17;;;;;;;5.67;3.60;;;;;;;18.74;54.42;99996.72;5071624;28;20167;-62
2022/12/04 09:38:47;;;;;;;5.80;3.60;;;;;;;18.77;54.35;99984.47;5052699;28;20182;-61
2022/12/04 09:41:31;;;;;;;4.73;3.07;;;;;;;18.75;54.42;99986.94;5071497;28;20193;-61
2022/12/04 09:43:58;;;;;;;5.17;3.60;;;;;;;18.79;54.06;99995.53;5058620;28;20481;-61
2022/12/04 09:46:35;;;;;;;5.90;4.23;;;;;;;18.78;54.10;99996.75;5066032;28;20471;-61
2022/12/04 09:49:09;;;;;;;6.93;3.60;;;;;;;18.77;54.30;99989.41;5052483;28;20437;-61
2022/12/04 09:51:34;;;;;;;5.10;3.40;;;;;;;18.78;54.17;99986.16;5049816;28;20418;-61
2022/12/04 09:54:03;;;;;;;5.37;3.60;;;;;;;18.77;54.29;99989.41;5051267;28;20438;-61
2022/12/04 09:56:29;;;;;;;4.83;3.40;;;;;;;18.80;54.52;99980.84;5053021;28;20203;-61
2022/12/04 09:59:13;;;;;;;8.30;3.23;;;;;;;18.81;54.22;99975.97;5053297;28;21191;-61
2022/12/04 10:02:08;;;;;;;4.80;3.37;;;;;;;18.82;54.20;99980.47;5054954;28;20401;-61
2022/12/04 10:04:33;;;;;;;4.93;3.50;;;;;;;18.81;54.24;99975.97;5056905;28;20464;-61
2022/12/04 10:07:33;;;;;;;7.40;3.53;;;;;;;18.78;54.34;99977.56;5074613;28;20418;-61
2022/12/04 10:10:05;;;;;;;5.93;4.00;;;;;;;18.80;54.40;99974.31;5061706;28;20183;-61
2022/12/04 10:12:57;;;;;;;5.73;3.50;;;;;;;18.82;54.20;99975.56;5037343;28;20436;-61
2022/12/04 10:15:34;;;;;;;5.93;3.80;;;;;;;18.83;54.17;99977.22;5037220;28;20821;-62
2022/12/04 10:18:13;;;;;;;5.37;3.30;;;;;;;18.78;54.13;99977.56;5039671;28;20494;-62
2022/12/04 10:20:45;;;;;;;5.77;3.50;;;;;;;18.82;54.21;99974.75;5054725;28;20410;-62
2022/12/04 10:23:19;;;;;;;6.23;3.60;;;;;;;18.78;54.09;99977.56;5035699;28;20460;-62
2022/12/04 10:25:44;;;;;;;5.03;3.17;;;;;;;18.80;54.21;99972.28;5053505;28;20418;-62
2022/12/04 10:28:28;;;;;;;5.03;3.40;;;;;;;18.80;54.21;99968.59;5027307;28;20542;-61
2022/12/04 10:30:56;;;;;;;5.80;3.67;;;;;;;18.79;54.46;99973.50;5070941;28;20186;-62
2022/12/04 10:33:31;;;;;;;6.20;3.50;;;;;;;18.77;54.17;99972.25;5026212;28;20463;-62
2022/12/04 10:35:56;;;;;;;5.70;3.60;;;;;;;18.81;54.34;99962.47;5055721;28;20945;-62
2022/12/04 10:38:27;;;;;;;4.40;3.23;;;;;;;18.80;54.23;99968.59;5074243;28;20437;-61
2022/12/04 10:41:11;;;;;;;6.20;3.70;;;;;;;18.82;54.14;99963.31;5065346;28;20188;-61
2022/12/04 10:43:41;;;;;;;4.70;3.50;;;;;;;18.84;54.19;99978.03;5054249;28;20557;-62
2022/12/04 10:46:27;;;;;;;4.30;2.90;;;;;;;18.81;54.29;99968.19;5039597;28;20873;-62
2022/12/04 10:49:00;;;;;;;5.23;3.20;;;;;;;18.81;54.23;99973.13;5053961;28;20484;-62
2022/12/04 10:51:26;;;;;;;5.47;3.80;;;;;;;18.77;54.37;99975.91;5037420;28;20418;-61
2022/12/04 10:53:51;;;;;;;4.87;3.47;;;;;;;18.80;54.47;99968.59;5054455;28;20432;-62
2022/12/04 10:56:20;;;;;;;6.67;3.40;;;;;;;18.86;54.18;99970.72;5072577;28;20167;-61
2022/12/04 10:59:00;;;;;;;4.77;3.17;;;;;;;18.84;54.27;99958.84;5043024;28;20228;-62
2022/12/04 11:01:26;;;;;;;5.60;3.43;;;;;;;18.83;54.32;99962.94;5034209;28;20411;-62
2022/12/04 11:04:04;;;;;;;5.40;3.50;;;;;;;18.79;54.42;99967.78;5016163;28;20513;-62
2022/12/04 11:06:30;;;;;;;4.93;2.83;;;;;;;18.81;54.33;99967.41;5035879;28;20402;-61
2022/12/04 11:08:55;;;;;;;5.33;3.10;;;;;;;18.84;54.37;99975.16;5018585;28;20898;-61
2022/12/04 11:11:32;;;;;;;5.90;3.50;;;;;;;18.75;54.73;99964.03;5016096;28;20207;-61
2022/12/04 11:14:01;;;;;;;4.93;3.47;;;;;;;18.76;54.82;99971.41;5015485;28;20163;-62
2022/12/04 11:16:37;;;;;;;4.33;3.13;;;;;;;18.73;54.86;99965.66;5045826;28;20441;-65
2022/12/04 11:19:16;;;;;;;4.57;3.17;;;;;;;18.77;54.78;99957.94;5019909;28;20453;-65
2022/12/04 11:21:41;;;;;;;42.13;4.33;;;;;;;18.77;54.49;99964.47;5004990;28;20481;-65
2022/12/04 11:24:31;;;;;;;6.40;3.47;;;;;;;18.77;54.98;99967.31;5036686;28;20850;-62
2022/12/04 11:26:56;;;;;;;4.53;2.83;;;;;;;18.75;54.50;99964.03;5020199;28;20176;-62
2022/12/04 11:29:31;;;;;;;4.77;3.17;;;;;;;18.80;54.76;99966.56;5033434;28;20425;-62
2022/12/04 11:31:57;;;;;;;4.67;3.30;;;;;;;18.83;54.50;99970.69;5033145;28;20160;-62
2022/12/04 11:34:25;;;;;;;5.23;3.40;;;;;;;18.86;54.08;99979.28;5046044;28;20422;-62
2022/12/04 11:36:55;;;;;;;5.27;3.57;;;;;;;18.77;54.41;99973.03;5031837;28;20179;-62
2022/12/04 11:39:27;;;;;;;5.60;3.90;;;;;;;18.82;54.40;99969.03;5052848;28;20422;-62
2022/12/04 11:42:11;;;;;;;5.10;3.27;;;;;;;18.78;54.66;99979.59;5052324;28;20438;-63
2022/12/04 11:44:37;;;;;;;4.27;2.73;;;;;;;18.78;54.43;99991.88;5033417;28;20455;-62
2022/12/04 11:47:03;;;;;;;5.47;3.30;;;;;;;18.81;54.60;99982.50;5037931;28;20450;-62
2022/12/04 11:49:29;;;;;;;5.70;3.60;;;;;;;18.83;54.38;99982.94;5032776;28;20156;-62
2022/12/04 11:52:00;;;;;;;4.23;3.23;;;;;;;18.82;54.55;99975.56;5032739;28;21162;-62